Time;durP1;ratioP1;P1;durP2;ratioP2;P2;SDS_P1;SDS_P2;PMS_P1;PMS_P2;Temp;Humidity;BMP_temperature;BMP_pressure;BME280_temperature;BME280_humidity;BME280_pressure;Samples;Min_cycle;Max_cycle;Signal;HPM_P1;HPM_P2
2022/12/18 00:01:54;;;;;;;19.30;9.35;;;;;;;;;;10289278;28;20081;-87
2022/12/18 00:06:58;;;;;;;15.05;7.13;;;;;;;;;;10265344;28;20096;-87
2022/12/18 00:12:01;;;;;;;16.25;7.47;;;;;;;;;;10265271;28;20697;-89
2022/12/18 00:17:06;;;;;;;25.58;11.52;;;;;;;;;;10282437;28;20141;-92
2022/12/18 00:22:10;;;;;;;;;;;;;;;;;;10293579;28;20053;-88
2022/12/18 00:27:14;;;;;;;23.50;11.13;;;;;;;;;;10282566;28;19928;-87
2022/12/18 00:32:19;;;;;;;22.08;9.38;;;;;;;;;;10273667;28;20517;-91
2022/12/18 00:37:22;;;;;;;19.52;8.75;;;;;;;;;;10288932;28;20093;-89
2022/12/18 00:47:49;;;;;;;25.40;10.35;;;;;;;;;;10264898;28;20058;-90
2022/12/18 00:52:53;;;;;;;25.45;10.52;;;;;;;;;;10256025;28;20134;-90
2022/12/18 00:57:56;;;;;;;23.77;10.10;;;;;;;;;;10287649;28;20052;-89
2022/12/18 01:03:02;;;;;;;24.50;11.00;;;;;;;;;;10271819;28;20527;-89
2022/12/18 01:08:06;;;;;;;24.50;10.65;;;;;;;;;;10280964;28;20101;-90
2022/12/18 01:13:09;;;;;;;22.52;10.10;;;;;;;;;;10280580;28;20600;-89
2022/12/18 01:18:14;;;;;;;16.42;8.68;;;;;;;;;;10286234;28;20345;-89
2022/12/18 01:23:17;;;;;;;21.13;9.33;;;;;;;;;;10261449;28;20544;-90
2022/12/18 01:28:21;;;;;;;22.13;9.40;;;;;;;;;;10264943;28;20051;-89
2022/12/18 01:33:26;;;;;;;19.48;8.48;;;;;;;;;;10270405;28;20073;-90
2022/12/18 01:38:30;;;;;;;21.45;8.88;;;;;;;;;;10270394;28;20122;-88
2022/12/18 01:43:50;;;;;;;17.65;8.52;;;;;;;;;;10269814;28;20550;-87
2022/12/18 01:48:59;;;;;;;20.35;9.18;;;;;;;;;;10268473;28;20047;-88
2022/12/18 01:54:03;;;;;;;18.98;8.52;;;;;;;;;;10265686;28;20414;-89
2022/12/18 01:59:10;;;;;;;20.55;8.73;;;;;;;;;;10285160;28;20050;-89
2022/12/18 02:04:24;;;;;;;22.65;10.45;;;;;;;;;;10281691;28;20098;-89
2022/12/18 02:09:34;;;;;;;20.60;10.02;;;;;;;;;;10275312;28;20077;-89
2022/12/18 02:14:45;;;;;;;18.40;8.95;;;;;;;;;;10254450;28;20101;-89
2022/12/18 02:20:02;;;;;;;25.08;9.63;;;;;;;;;;10261089;28;20489;-87
2022/12/18 02:25:21;;;;;;;22.73;11.50;;;;;;;;;;10259508;28;20494;-87
2022/12/18 02:30:27;;;;;;;21.70;10.15;;;;;;;;;;10266264;28;20172;-88
2022/12/18 02:35:32;;;;;;;23.40;12.13;;;;;;;;;;10288098;28;20122;-87
2022/12/18 02:40:39;;;;;;;31.25;13.50;;;;;;;;;;10261233;28;20050;-87
2022/12/18 02:45:53;;;;;;;23.75;11.68;;;;;;;;;;10251035;28;20066;-87
2022/12/18 02:51:04;;;;;;;25.48;11.05;;;;;;;;;;10249908;28;20051;-87
2022/12/18 02:56:13;;;;;;;21.95;10.27;;;;;;;;;;10252699;28;20043;-87
2022/12/18 03:01:24;;;;;;;20.77;9.40;;;;;;;;;;10275688;28;20302;-87
2022/12/18 03:06:31;;;;;;;19.27;9.30;;;;;;;;;;10259056;28;20034;-88
2022/12/18 03:17:06;;;;;;;23.05;10.73;;;;;;;;;;10259651;28;20043;-90
2022/12/18 03:22:11;;;;;;;26.13;12.07;;;;;;;;;;10263305;28;20129;-89
2022/12/18 03:27:25;;;;;;;20.23;9.55;;;;;;;;;;10253744;28;20151;-89
2022/12/18 03:32:37;;;;;;;19.38;8.82;;;;;;;;;;10258968;28;20305;-89
2022/12/18 03:37:41;;;;;;;22.02;10.20;;;;;;;;;;10289032;28;20560;-89
2022/12/18 03:42:49;;;;;;;26.10;12.07;;;;;;;;;;10290456;28;20038;-88
2022/12/18 03:48:03;;;;;;;27.00;11.95;;;;;;;;;;10274188;28;20461;-90
2022/12/18 03:53:26;;;;;;;22.25;10.88;;;;;;;;;;10285569;28;20042;-91
2022/12/18 03:58:32;;;;;;;26.25;11.23;;;;;;;;;;10275095;28;20042;-89
2022/12/18 04:03:53;;;;;;;23.73;11.50;;;;;;;;;;10275080;28;20046;-90
2022/12/18 04:08:58;;;;;;;26.40;11.48;;;;;;;;;;10287520;28;20445;-90
2022/12/18 04:14:04;;;;;;;23.67;10.48;;;;;;;;;;10251203;28;20038;-88
2022/12/18 04:19:13;;;;;;;20.58;10.13;;;;;;;;;;10288505;28;20050;-89
2022/12/18 04:24:19;;;;;;;17.30;9.10;;;;;;;;;;10253521;28;20043;-88
2022/12/18 04:29:37;;;;;;;16.83;8.05;;;;;;;;;;10273841;28;20694;-88
2022/12/18 04:34:42;;;;;;;25.33;12.38;;;;;;;;;;10264830;28;20047;-89
2022/12/18 04:39:46;;;;;;;;;;;;;;;;;;10262654;28;20123;-89
2022/12/18 04:44:57;;;;;;;22.73;11.60;;;;;;;;;;10272121;28;19922;-89
2022/12/18 04:50:02;;;;;;;25.70;11.25;;;;;;;;;;10276245;28;20138;-89
2022/12/18 04:55:06;;;;;;;21.00;11.57;;;;;;;;;;10275994;28;20532;-89
2022/12/18 05:00:11;;;;;;;26.27;12.18;;;;;;;;;;10293998;28;20049;-89
2022/12/18 05:05:16;;;;;;;26.97;12.30;;;;;;;;;;10272310;28;20353;-89
2022/12/18 05:10:19;;;;;;;23.02;11.30;;;;;;;;;;10275456;28;20048;-89
2022/12/18 05:15:23;;;;;;;23.75;11.13;;;;;;;;;;10296245;28;20129;-89
2022/12/18 05:20:29;;;;;;;23.92;11.60;;;;;;;;;;10272753;28;20137;-89
2022/12/18 05:25:32;;;;;;;24.90;11.32;;;;;;;;;;10275546;28;20043;-89
2022/12/18 05:30:36;;;;;;;21.90;10.88;;;;;;;;;;10262803;28;20138;-89
2022/12/18 05:35:42;;;;;;;20.08;10.40;;;;;;;;;;10268758;28;20395;-90
2022/12/18 05:40:46;;;;;;;28.77;14.25;;;;;;;;;;10263538;28;20046;-89
2022/12/18 05:45:50;;;;;;;28.50;13.50;;;;;;;;;;10280444;28;20074;-88
2022/12/18 05:50:56;;;;;;;29.30;11.75;;;;;;;;;;10259001;28;20055;-89
2022/12/18 05:56:00;;;;;;;;;;;;;;;;;;10277799;28;20046;-89
2022/12/18 06:01:09;;;;;;;24.73;11.33;;;;;;;;;;10293394;28;20048;-88
2022/12/18 06:06:19;;;;;;;26.15;12.00;;;;;;;;;;10257434;28;20405;-87
2022/12/18 06:11:24;;;;;;;21.35;11.10;;;;;;;;;;10258903;28;20053;-86
2022/12/18 06:16:28;;;;;;;;;;;;;;;;;;10282447;28;20039;-87
2022/12/18 06:21:33;;;;;;;20.88;10.43;;;;;;;;;;10277170;28;20420;-86
2022/12/18 06:26:39;;;;;;;21.67;10.73;;;;;;;;;;10280507;28;20097;-86
2022/12/18 06:31:46;;;;;;;20.95;9.77;;;;;;;;;;10260967;28;20517;-87
2022/12/18 06:36:51;;;;;;;24.05;12.07;;;;;;;;;;10268966;28;20125;-87
2022/12/18 06:41:55;;;;;;;19.30;9.48;;;;;;;;;;10269937;28;20337;-87
2022/12/18 06:46:58;;;;;;;23.20;10.07;;;;;;;;;;10280102;28;20157;-87
2022/12/18 06:52:03;;;;;;;23.48;10.55;;;;;;;;;;10262927;28;20046;-88
2022/12/18 06:57:07;;;;;;;19.58;10.68;;;;;;;;;;10274123;28;20054;-89
2022/12/18 07:02:12;;;;;;;19.30;10.40;;;;;;;;;;10257268;28;20137;-89
2022/12/18 07:07:17;;;;;;;25.17;12.07;;;;;;;;;;10267732;28;20062;-89
2022/12/18 07:12:21;;;;;;;23.65;13.02;;;;;;;;;;10282344;28;20112;-89
2022/12/18 07:17:25;;;;;;;24.80;12.85;;;;;;;;;;10282534;28;20046;-89
2022/12/18 07:22:30;;;;;;;21.77;11.88;;;;;;;;;;10261129;28;20713;-88
2022/12/18 07:27:36;;;;;;;;;;;;;;;;;;10274729;28;20744;-89
2022/12/18 07:32:40;;;;;;;23.70;11.82;;;;;;;;;;10282197;28;19969;-89
2022/12/18 07:37:46;;;;;;;22.35;10.27;;;;;;;;;;10268502;28;20066;-89
2022/12/18 07:42:50;;;;;;;21.08;10.90;;;;;;;;;;10291843;28;20109;-89
2022/12/18 07:47:53;;;;;;;20.08;11.43;;;;;;;;;;10274626;28;20134;-88
2022/12/18 07:53:03;;;;;;;24.55;11.48;;;;;;;;;;10274112;28;20675;-88
2022/12/18 07:58:06;;;;;;;23.95;12.65;;;;;;;;;;10273222;28;20096;-89
2022/12/18 08:03:10;;;;;;;21.92;11.85;;;;;;;;;;10285925;28;20078;-88
2022/12/18 08:08:15;;;;;;;26.90;12.60;;;;;;;;;;10273059;28;20042;-89
2022/12/18 08:13:19;;;;;;;23.13;10.48;;;;;;;;;;10289181;28;20538;-89
2022/12/18 08:18:25;;;;;;;20.27;10.18;;;;;;;;;;10275687;28;20043;-89
2022/12/18 08:23:33;;;;;;;21.55;11.60;;;;;;;;;;10268350;28;20048;-89
2022/12/18 08:28:39;;;;;;;26.35;12.00;;;;;;;;;;10275477;28;20230;-90
2022/12/18 08:33:43;;;;;;;29.50;14.07;;;;;;;;;;10285418;28;20436;-89
2022/12/18 08:38:48;;;;;;;35.35;15.57;;;;;;;;;;10306386;28;20229;-89
2022/12/18 08:49:13;;;;;;;29.88;13.48;;;;;;;;;;10302483;28;20043;-91
2022/12/18 08:54:18;;;;;;;23.30;11.45;;;;;;;;;;10287272;28;20053;-89
2022/12/18 08:59:22;;;;;;;24.92;12.27;;;;;;;;;;10288528;28;20384;-89
2022/12/18 09:04:26;;;;;;;23.40;11.65;;;;;;;;;;10275019;28;20043;-89
2022/12/18 09:09:31;;;;;;;24.77;11.07;;;;;;;;;;10278378;28;20038;-91
2022/12/18 09:14:39;;;;;;;24.75;12.60;;;;;;;;;;10280495;28;20057;-89
2022/12/18 09:19:43;;;;;;;21.48;12.05;;;;;;;;;;10280247;28;20137;-89
2022/12/18 09:24:51;;;;;;;20.65;10.18;;;;;;;;;;10268298;28;20057;-87
2022/12/18 09:29:55;;;;;;;25.58;12.07;;;;;;;;;;10298693;23;20074;-89
2022/12/18 09:34:59;;;;;;;26.40;11.77;;;;;;;;;;10284421;28;20051;-88
2022/12/18 09:40:05;;;;;;;29.77;13.20;;;;;;;;;;10274950;28;20399;-88
2022/12/18 09:45:14;;;;;;;23.13;11.50;;;;;;;;;;10269425;28;20047;-88
2022/12/18 09:50:28;;;;;;;19.20;10.32;;;;;;;;;;10298529;28;20047;-88
2022/12/18 09:55:36;;;;;;;19.23;9.75;;;;;;;;;;10280747;28;20046;-88
2022/12/18 10:00:41;;;;;;;18.95;9.55;;;;;;;;;;10276225;28;20410;-88
2022/12/18 10:05:53;;;;;;;18.50;9.48;;;;;;;;;;10283134;28;20050;-87
2022/12/18 10:11:04;;;;;;;21.48;10.40;;;;;;;;;;10296187;28;20303;-88
2022/12/18 10:16:14;;;;;;;20.10;10.90;;;;;;;;;;10293376;28;20061;-87
2022/12/18 10:21:22;;;;;;;19.73;9.13;;;;;;;;;;10293323;28;20552;-87
2022/12/18 10:26:27;;;;;;;22.65;10.65;;;;;;;;;;10279003;28;20057;-86
2022/12/18 10:31:30;;;;;;;24.85;11.85;;;;;;;;;;10253988;28;20313;-87
2022/12/18 10:36:34;;;;;;;24.05;12.20;;;;;;;;;;10258037;28;20050;-87
2022/12/18 10:41:39;;;;;;;20.00;9.25;;;;;;;;;;10274933;28;20049;-84
2022/12/18 10:46:43;;;;;;;25.58;12.10;;;;;;;;;;10322080;28;20034;-85
2022/12/18 10:51:46;;;;;;;18.55;10.30;;;;;;;;;;10296724;28;20046;-84
2022/12/18 10:56:51;;;;;;;21.85;10.00;;;;;;;;;;10327305;28;20046;-84
2022/12/18 11:01:56;;;;;;;16.38;8.40;;;;;;;;;;10307031;28;20077;-86
2022/12/18 11:07:02;;;;;;;24.20;11.27;;;;;;;;;;10298018;28;20038;-87
2022/12/18 11:12:19;;;;;;;;;;;;;;;;;;10323175;28;20042;-87
2022/12/18 11:17:28;;;;;;;31.02;13.15;;;;;;;;;;10331917;28;20552;-88
2022/12/18 11:22:34;;;;;;;34.88;13.95;;;;;;;;;;10309155;28;20046;-87
2022/12/18 11:27:39;;;;;;;26.70;12.32;;;;;;;;;;10284401;28;20421;-88
2022/12/18 11:32:45;;;;;;;26.23;11.30;;;;;;;;;;10305246;28;20064;-86
2022/12/18 11:37:57;;;;;;;22.75;10.27;;;;;;;;;;10311177;28;20042;-86
2022/12/18 11:43:09;;;;;;;25.70;11.55;;;;;;;;;;10303688;28;20042;-88
2022/12/18 11:48:18;;;;;;;22.80;10.77;;;;;;;;;;10296644;28;20046;-86
2022/12/18 11:53:22;;;;;;;15.85;7.70;;;;;;;;;;10285325;28;20049;-83
2022/12/18 11:58:39;;;;;;;12.63;6.28;;;;;;;;;;10318889;28;20041;-84
2022/12/18 12:03:59;;;;;;;16.05;6.78;;;;;;;;;;10327048;28;20039;-84
2022/12/18 12:09:12;;;;;;;15.68;8.30;;;;;;;;;;10301006;28;20068;-83
2022/12/18 12:14:30;;;;;;;14.45;6.60;;;;;;;;;;10338938;28;20050;-84
2022/12/18 12:19:48;;;;;;;15.63;7.47;;;;;;;;;;10300443;28;20061;-84
2022/12/18 12:25:03;;;;;;;13.82;7.72;;;;;;;;;;10261594;28;20043;-83
2022/12/18 12:30:10;;;;;;;16.90;8.45;;;;;;;;;;10265470;28;20039;-83
2022/12/18 12:35:24;;;;;;;14.52;7.10;;;;;;;;;;10273548;28;20049;-84
2022/12/18 12:40:30;;;;;;;14.75;7.75;;;;;;;;;;10254198;28;20049;-84
2022/12/18 12:45:59;;;;;;;11.73;6.20;;;;;;;;;;10249714;28;20051;-84
2022/12/18 12:51:09;;;;;;;13.20;6.05;;;;;;;;;;10284384;28;20042;-84
2022/12/18 12:56:14;;;;;;;12.15;6.03;;;;;;;;;;10271169;28;20053;-82
2022/12/18 13:01:28;;;;;;;21.20;10.23;;;;;;;;;;10306521;28;20073;-83
2022/12/18 13:06:40;;;;;;;26.40;11.88;;;;;;;;;;10327984;28;20129;-85
2022/12/18 13:17:29;;;;;;;18.30;9.50;;;;;;;;;;10313726;28;20050;-84
2022/12/18 13:22:36;;;;;;;22.20;10.00;;;;;;;;;;10316197;28;20070;-84
2022/12/18 13:28:01;;;;;;;14.75;7.22;;;;;;;;;;10307609;28;20099;-83
2022/12/18 13:33:39;;;;;;;19.40;9.90;;;;;;;;;;10303487;28;20045;-84
2022/12/18 13:39:32;;;;;;;17.23;8.68;;;;;;;;;;10307026;28;20097;-83
2022/12/18 13:44:39;;;;;;;16.58;8.20;;;;;;;;;;10251309;28;20314;-84
2022/12/18 13:49:47;;;;;;;16.27;7.97;;;;;;;;;;10317697;28;20089;-84
2022/12/18 13:54:53;;;;;;;16.58;8.68;;;;;;;;;;10306139;28;20062;-83
2022/12/18 13:59:57;;;;;;;15.68;6.90;;;;;;;;;;10312474;28;20057;-85
2022/12/18 14:05:02;;;;;;;14.93;7.47;;;;;;;;;;10297743;28;20153;-83
2022/12/18 14:10:14;;;;;;;15.52;6.80;;;;;;;;;;10309227;28;20034;-84
2022/12/18 14:15:39;;;;;;;12.35;6.00;;;;;;;;;;10327638;28;20649;-82
2022/12/18 14:20:49;;;;;;;13.98;5.88;;;;;;;;;;10300999;28;20101;-83
2022/12/18 14:25:54;;;;;;;12.13;6.65;;;;;;;;;;10309572;28;20410;-84
2022/12/18 14:30:59;;;;;;;14.55;6.82;;;;;;;;;;10310684;28;20488;-86
2022/12/18 14:36:06;;;;;;;20.75;8.60;;;;;;;;;;10307558;28;20269;-85
2022/12/18 14:41:13;;;;;;;20.67;9.57;;;;;;;;;;10308280;28;20073;-84
2022/12/18 14:46:36;;;;;;;25.33;11.57;;;;;;;;;;10310333;28;20100;-85
2022/12/18 14:51:47;;;;;;;24.33;11.10;;;;;;;;;;10301115;28;20125;-86
2022/12/18 14:56:57;;;;;;;28.90;13.15;;;;;;;;;;10292093;28;20073;-84
2022/12/18 15:02:05;;;;;;;35.70;14.70;;;;;;;;;;10289920;28;20577;-84
2022/12/18 15:07:14;;;;;;;26.42;12.55;;;;;;;;;;10292827;28;20060;-84
2022/12/18 15:12:29;;;;;;;21.73;11.02;;;;;;;;;;10293481;28;20046;-84
2022/12/18 15:17:33;;;;;;;32.50;15.33;;;;;;;;;;10312599;28;20073;-83
2022/12/18 15:22:38;;;;;;;26.55;13.40;;;;;;;;;;10332040;28;20039;-84
2022/12/18 15:27:48;;;;;;;36.40;15.63;;;;;;;;;;10313320;28;20051;-84
2022/12/18 15:32:52;;;;;;;33.13;15.70;;;;;;;;;;10329670;28;20050;-86
2022/12/18 15:37:57;;;;;;;29.83;12.95;;;;;;;;;;10319285;28;20046;-87
2022/12/18 15:48:23;;;;;;;25.00;11.75;;;;;;;;;;10316270;28;20703;-86
2022/12/18 15:53:32;;;;;;;25.50;12.00;;;;;;;;;;10298302;28;20257;-86
2022/12/18 15:58:35;;;;;;;22.80;11.10;;;;;;;;;;10294192;28;20074;-87
2022/12/18 16:03:39;;;;;;;27.45;11.70;;;;;;;;;;10310493;28;20041;-82
2022/12/18 16:08:47;;;;;;;23.13;10.38;;;;;;;;;;10330757;28;20042;-82
2022/12/18 16:13:51;;;;;;;17.55;8.35;;;;;;;;;;10318039;28;20104;-82
2022/12/18 16:18:54;;;;;;;16.70;7.90;;;;;;;;;;10307592;28;20118;-82
2022/12/18 16:23:59;;;;;;;17.65;8.27;;;;;;;;;;10305260;28;20518;-83
2022/12/18 16:29:03;;;;;;;23.38;9.82;;;;;;;;;;10327998;28;20685;-83
2022/12/18 16:34:14;;;;;;;21.35;9.65;;;;;;;;;;10309474;28;20468;-83
2022/12/18 16:39:19;;;;;;;17.30;7.85;;;;;;;;;;10308578;28;20782;-83
2022/12/18 16:44:23;;;;;;;21.00;8.53;;;;;;;;;;10318999;28;20678;-82
2022/12/18 16:49:27;;;;;;;22.85;10.13;;;;;;;;;;10312882;28;20124;-82
2022/12/18 16:54:32;;;;;;;21.98;8.70;;;;;;;;;;10296273;28;20469;-83
2022/12/18 16:59:36;;;;;;;18.88;9.07;;;;;;;;;;10314131;28;20121;-83
2022/12/18 17:04:42;;;;;;;18.70;8.02;;;;;;;;;;10291122;28;20039;-82
2022/12/18 17:09:50;;;;;;;16.73;7.07;;;;;;;;;;10319685;28;20034;-83
2022/12/18 17:14:54;;;;;;;17.13;6.93;;;;;;;;;;10261655;28;20481;-83
2022/12/18 17:19:57;;;;;;;13.80;6.63;;;;;;;;;;10278636;28;20046;-83
2022/12/18 17:25:02;;;;;;;15.35;6.95;;;;;;;;;;10275361;28;20137;-83
2022/12/18 17:30:07;;;;;;;11.95;5.97;;;;;;;;;;10303458;28;20050;-83
2022/12/18 17:35:11;;;;;;;15.82;7.35;;;;;;;;;;10457459;23;20047;-87
2022/12/18 17:40:16;;;;;;;12.82;6.82;;;;;;;;;;10246581;28;20081;-88
2022/12/18 17:45:20;;;;;;;15.10;6.65;;;;;;;;;;10223897;28;20047;-87
2022/12/18 17:50:24;;;;;;;12.95;6.03;;;;;;;;;;10210865;28;20047;-87
2022/12/18 17:55:29;;;;;;;15.45;6.72;;;;;;;;;;10229434;28;20047;-88
2022/12/18 18:00:33;;;;;;;20.83;8.57;;;;;;;;;;10219572;28;20342;-86
2022/12/18 18:05:37;;;;;;;21.63;9.75;;;;;;;;;;10250396;28;20274;-86
2022/12/18 18:10:42;;;;;;;20.08;8.55;;;;;;;;;;10252942;28;20142;-87
2022/12/18 18:15:54;;;;;;;22.17;10.30;;;;;;;;;;10222482;28;20047;-87
2022/12/18 18:20:58;;;;;;;28.67;10.65;;;;;;;;;;10223304;28;20101;-87
2022/12/18 18:26:05;;;;;;;30.05;13.90;;;;;;;;;;10223030;28;20130;-88
2022/12/18 18:31:11;;;;;;;28.05;13.02;;;;;;;;;;10224623;28;20043;-87
2022/12/18 18:36:14;;;;;;;25.57;10.53;;;;;;;;;;10240342;28;20047;-87
2022/12/18 18:41:23;;;;;;;30.77;12.50;;;;;;;;;;10243499;28;20085;-89
2022/12/18 18:46:27;;;;;;;28.45;12.88;;;;;;;;;;10235803;28;20071;-91
2022/12/18 18:51:32;;;;;;;32.13;13.73;;;;;;;;;;10248274;28;20054;-89
2022/12/18 18:56:39;;;;;;;30.63;12.80;;;;;;;;;;10221956;28;20051;-90
2022/12/18 19:02:02;;;;;;;24.45;11.15;;;;;;;;;;10236965;28;20050;-89
2022/12/18 19:07:09;;;;;;;31.88;13.38;;;;;;;;;;10234974;28;20047;-89
2022/12/18 19:17:36;;;;;;;36.80;17.27;;;;;;;;;;10231560;28;20130;-89
2022/12/18 19:22:40;;;;;;;28.50;12.32;;;;;;;;;;10242323;28;20071;-89
2022/12/18 19:27:45;;;;;;;23.17;10.88;;;;;;;;;;10230048;28;20129;-87
2022/12/18 19:32:49;;;;;;;29.52;13.20;;;;;;;;;;10232196;28;20241;-87
2022/12/18 19:37:52;;;;;;;36.00;16.67;;;;;;;;;;10237570;28;20848;-87
2022/12/18 19:42:57;;;;;;;25.23;10.68;;;;;;;;;;10225426;28;20047;-87
2022/12/18 19:48:03;;;;;;;19.20;8.00;;;;;;;;;;10230340;28;20137;-87
2022/12/18 19:53:07;;;;;;;;;;;;;;;;;;10238826;28;20047;-87
2022/12/18 19:58:15;;;;;;;23.35;10.32;;;;;;;;;;10247505;28;20480;-87
2022/12/18 20:03:18;;;;;;;24.92;10.35;;;;;;;;;;10239088;28;20047;-87
2022/12/18 20:08:28;;;;;;;22.55;9.60;;;;;;;;;;10227638;28;20043;-87
2022/12/18 20:13:33;;;;;;;23.95;9.93;;;;;;;;;;10235410;28;20460;-87
2022/12/18 20:18:37;;;;;;;27.38;12.15;;;;;;;;;;10254405;28;20074;-87
2022/12/18 20:23:40;;;;;;;24.75;9.98;;;;;;;;;;10239801;28;20044;-88
2022/12/18 20:28:46;;;;;;;20.10;9.18;;;;;;;;;;10231119;28;20446;-89
2022/12/18 20:33:50;;;;;;;73.88;26.75;;;;;;;;;;10225864;28;20984;-89
2022/12/18 20:38:55;;;;;;;36.15;15.63;;;;;;;;;;10224569;28;20134;-87
2022/12/18 20:44:00;;;;;;;24.15;10.48;;;;;;;;;;10223238;28;20130;-89
2022/12/18 20:49:03;;;;;;;25.53;11.50;;;;;;;;;;10233391;28;20071;-90
2022/12/18 20:54:07;;;;;;;23.33;10.55;;;;;;;;;;10234657;28;20133;-88
2022/12/18 20:59:15;;;;;;;18.48;9.65;;;;;;;;;;10250980;28;20511;-90
2022/12/18 21:04:19;;;;;;;20.13;9.45;;;;;;;;;;10226841;28;20079;-88
2022/12/18 21:09:23;;;;;;;23.60;10.20;;;;;;;;;;10225043;28;20131;-87
2022/12/18 21:14:29;;;;;;;24.35;11.27;;;;;;;;;;10221131;28;20042;-86
2022/12/18 21:19:33;;;;;;;23.30;11.30;;;;;;;;;;10219111;28;20412;-87
2022/12/18 21:24:36;;;;;;;24.15;10.98;;;;;;;;;;10226675;28;20043;-86
2022/12/18 21:29:42;;;;;;;23.85;10.88;;;;;;;;;;10227508;28;20051;-87
2022/12/18 21:34:46;;;;;;;27.80;12.47;;;;;;;;;;10226603;28;20130;-87
2022/12/18 21:39:50;;;;;;;22.52;9.93;;;;;;;;;;10273300;28;20297;-88
2022/12/18 21:44:55;;;;;;;20.10;9.30;;;;;;;;;;10283913;28;20043;-88
2022/12/18 21:49:58;;;;;;;17.02;8.27;;;;;;;;;;10276640;28;20046;-88
2022/12/18 21:55:02;;;;;;;20.20;9.02;;;;;;;;;;10281612;28;20668;-87
2022/12/18 22:00:13;;;;;;;18.17;8.60;;;;;;;;;;10296210;28;20076;-87
2022/12/18 22:05:17;;;;;;;15.85;7.35;;;;;;;;;;10276665;28;20583;-87
2022/12/18 22:10:20;;;;;;;20.70;9.85;;;;;;;;;;10273486;28;20340;-87
2022/12/18 22:15:25;;;;;;;28.27;11.95;;;;;;;;;;10297328;28;20116;-90
2022/12/18 22:20:29;;;;;;;23.17;11.35;;;;;;;;;;10277472;28;20413;-89
2022/12/18 22:25:32;;;;;;;19.67;9.57;;;;;;;;;;10288616;28;20640;-87
2022/12/18 22:30:38;;;;;;;17.90;8.15;;;;;;;;;;10288499;28;20053;-87
2022/12/18 22:35:42;;;;;;;21.80;10.32;;;;;;;;;;10266961;28;20065;-88
2022/12/18 22:40:45;;;;;;;19.33;9.70;;;;;;;;;;10271873;28;20417;-87
2022/12/18 22:45:50;;;;;;;18.77;8.07;;;;;;;;;;10274342;28;20054;-86
2022/12/18 22:50:54;;;;;;;21.25;10.23;;;;;;;;;;10279273;28;20042;-87
2022/12/18 22:56:01;;;;;;;18.75;9.48;;;;;;;;;;10281260;28;20129;-87
2022/12/18 23:01:17;;;;;;;17.83;8.27;;;;;;;;;;10289895;28;20417;-88
2022/12/18 23:06:21;;;;;;;30.48;13.60;;;;;;;;;;10291964;28;20054;-89
2022/12/18 23:11:25;;;;;;;27.13;11.52;;;;;;;;;;10267382;28;20049;-91
2022/12/18 23:16:31;;;;;;;19.13;8.77;;;;;;;;;;10266442;28;20458;-88
2022/12/18 23:21:34;;;;;;;19.52;9.23;;;;;;;;;;10296638;28;20047;-88
2022/12/18 23:26:38;;;;;;;24.90;10.27;;;;;;;;;;10282368;28;20564;-87
2022/12/18 23:31:43;;;;;;;17.15;8.05;;;;;;;;;;10276357;28;20561;-89
2022/12/18 23:36:48;;;;;;;19.63;8.43;;;;;;;;;;10275448;28;20057;-89
2022/12/18 23:41:53;;;;;;;;;;;;;;;;;;10275695;28;20109;-90
2022/12/18 23:46:57;;;;;;;19.00;8.50;;;;;;;;;;10284696;28;19922;-89
2022/12/18 23:52:01;;;;;;;23.52;10.45;;;;;;;;;;10298221;28;20097;-89
2022/12/18 23:57:05;;;;;;;21.45;10.10;;;;;;;;;;10298985;28;20133;-87
